createdAt,value
2023-05-20T00:00:16.308Z,14.03
2023-05-20T00:02:48.864Z,13.73
2023-05-20T00:05:27.871Z,11.80
2023-05-20T00:07:57.717Z,11.23
2023-05-20T00:10:27.581Z,11.03
2023-05-20T00:12:58.707Z,16.73
2023-05-20T00:15:31.457Z,14.37
2023-05-20T00:18:05.626Z,13.80
2023-05-20T00:20:37.918Z,13.47
2023-05-20T00:23:10.082Z,11.20
2023-05-20T00:25:46.491Z,14.20
2023-05-20T00:28:21.469Z,11.10
2023-05-20T00:31:04.039Z,10.63
2023-05-20T00:33:40.304Z,16.13
2023-05-20T00:36:14.161Z,11.13
2023-05-20T00:38:48.198Z,14.63
2023-05-20T00:41:18.055Z,14.80
2023-05-20T00:43:50.574Z,14.20
2023-05-20T00:46:23.097Z,14.83
2023-05-20T00:48:57.380Z,9.30
2023-05-20T00:51:34.088Z,16.50
2023-05-20T00:54:04.074Z,15.73
2023-05-20T00:56:34.849Z,12.00
2023-05-20T00:59:08.439Z,14.03
2023-05-20T01:01:42.337Z,12.00
2023-05-20T01:04:23.354Z,15.67
2023-05-20T01:06:53.302Z,9.10
2023-05-20T01:09:24.627Z,16.30
2023-05-20T01:12:10.841Z,13.23
2023-05-20T01:14:49.716Z,12.80
2023-05-20T01:17:27.474Z,13.20
2023-05-20T01:20:12.534Z,13.43
2023-05-20T01:31:22.864Z,9.77
2023-05-20T01:34:10.510Z,12.47
2023-05-20T01:36:41.947Z,12.10
2023-05-20T01:39:24.501Z,12.50
2023-05-20T01:41:54.784Z,12.37
2023-05-20T01:44:27.377Z,12.03
2023-05-20T01:47:00.058Z,13.87
2023-05-20T01:49:36.618Z,10.23
2023-05-20T01:52:08.213Z,11.07
2023-05-20T01:54:41.126Z,10.87
2023-05-20T01:57:13.882Z,12.93
2023-05-20T01:59:51.872Z,11.10
2023-05-20T02:02:24.462Z,9.73
2023-05-20T02:07:44.736Z,10.33
2023-05-20T02:10:17.910Z,12.70
2023-05-20T02:18:53.599Z,10.50
2023-05-20T02:21:35.390Z,8.67
2023-05-20T02:35:30.608Z,8.03
2023-05-20T02:38:25.513Z,8.17
2023-05-20T02:41:04.742Z,8.53
2023-05-20T02:43:34.888Z,7.43
2023-05-20T02:46:07.906Z,9.23
2023-05-20T02:48:37.773Z,6.77
2023-05-20T02:51:08.312Z,10.37
2023-05-20T02:53:40.981Z,6.70
2023-05-20T02:56:19.642Z,5.63
2023-05-20T02:59:01.575Z,7.27
2023-05-20T03:01:31.651Z,7.07
2023-05-20T03:04:01.582Z,5.93
2023-05-20T03:06:34.420Z,7.37
2023-05-20T03:09:10.294Z,7.53
2023-05-20T03:11:46.503Z,4.83
2023-05-20T03:14:19.856Z,6.50
2023-05-20T03:16:50.913Z,6.50
2023-05-20T03:19:23.918Z,4.87
2023-05-20T03:21:53.952Z,6.33
2023-05-20T03:24:26.610Z,6.63
2023-05-20T03:26:59.543Z,5.23
2023-05-20T03:29:38.000Z,5.03
2023-05-20T03:32:11.901Z,5.70
2023-05-20T03:34:45.899Z,5.73
2023-05-20T03:37:20.895Z,5.67
2023-05-20T03:39:54.708Z,4.07
2023-05-20T03:42:30.809Z,5.70
2023-05-20T03:45:13.633Z,3.77
2023-05-20T03:47:45.910Z,6.53
2023-05-20T03:50:20.118Z,5.87
2023-05-20T03:52:52.159Z,4.70
2023-05-20T03:55:28.490Z,3.50
2023-05-20T03:57:59.238Z,4.50
2023-05-20T04:00:30.820Z,3.23
2023-05-20T04:03:04.993Z,6.93
2023-05-20T04:05:36.681Z,4.77
2023-05-20T04:08:07.771Z,4.30
2023-05-20T04:10:40.311Z,4.00
2023-05-20T04:13:10.161Z,5.60
2023-05-20T04:15:40.144Z,3.03
2023-05-20T04:18:14.111Z,4.60
2023-05-20T04:20:44.180Z,7.37
2023-05-20T04:23:15.637Z,6.50
2023-05-20T04:25:49.038Z,3.33
2023-05-20T04:28:19.152Z,3.33
2023-05-20T04:31:04.816Z,3.67
2023-05-20T04:33:48.052Z,4.20
2023-05-20T04:36:20.667Z,3.40
2023-05-20T04:38:50.567Z,4.70
2023-05-20T04:41:23.016Z,4.33
2023-05-20T04:43:53.756Z,3.87
2023-05-20T04:46:26.222Z,4.77
2023-05-20T04:49:05.120Z,3.03
2023-05-20T04:51:37.832Z,2.30
2023-05-20T04:54:10.697Z,3.60
2023-05-20T04:56:52.001Z,2.00
2023-05-20T04:59:24.254Z,2.93
2023-05-20T05:18:34.389Z,2.50
2023-05-20T05:21:07.205Z,4.70
2023-05-20T05:23:43.146Z,2.22
2023-05-20T05:26:14.542Z,2.83
2023-05-20T05:28:47.448Z,3.00
2023-05-20T05:31:18.420Z,2.58
2023-05-20T05:41:46.527Z,2.85
2023-05-20T05:44:17.181Z,5.05
2023-05-20T05:46:47.066Z,2.70
2023-05-20T05:49:20.853Z,2.72
2023-05-20T05:51:50.919Z,2.60
2023-05-20T05:54:21.270Z,3.47
2023-05-20T05:57:01.994Z,4.47
2023-05-20T05:59:31.866Z,2.30
2023-05-20T06:02:04.217Z,2.08
2023-05-20T06:04:34.114Z,3.20
2023-05-20T06:07:06.976Z,3.35
2023-05-20T06:09:43.859Z,2.40
2023-05-20T06:12:23.514Z,3.33
2023-05-20T06:15:02.488Z,3.45
2023-05-20T06:17:32.460Z,4.57
2023-05-20T06:20:04.756Z,3.25
2023-05-20T06:22:34.642Z,3.70
2023-05-20T06:25:07.151Z,4.18
2023-05-20T06:27:44.319Z,3.72
2023-05-20T06:30:22.497Z,2.80
2023-05-20T06:32:52.511Z,5.13
2023-05-20T06:35:22.480Z,4.65
2023-05-20T06:37:58.725Z,3.28
2023-05-20T06:40:28.998Z,2.42
2023-05-20T06:43:01.516Z,3.05
2023-05-20T06:45:35.721Z,3.92
2023-05-20T06:48:05.839Z,2.90
2023-05-20T06:50:35.747Z,2.17
2023-05-20T06:53:08.947Z,3.60
2023-05-20T06:55:40.169Z,3.08
2023-05-20T06:58:19.994Z,4.88
2023-05-20T07:03:37.462Z,3.50
2023-05-20T07:06:09.028Z,3.83
2023-05-20T07:08:40.088Z,3.13
2023-05-20T07:11:15.439Z,3.25
2023-05-20T07:13:53.754Z,3.78
2023-05-20T07:16:23.643Z,2.85
2023-05-20T07:18:55.423Z,3.78
2023-05-20T07:21:26.861Z,3.80
2023-05-20T07:23:59.361Z,4.20
2023-05-20T07:26:31.025Z,6.45
2023-05-20T07:29:04.300Z,3.08
2023-05-20T07:31:38.508Z,2.58
2023-05-20T07:34:10.587Z,4.05
2023-05-20T07:36:40.546Z,3.47
2023-05-20T07:39:24.664Z,3.83
2023-05-20T07:42:02.972Z,2.88
2023-05-20T07:44:35.496Z,3.55
2023-05-20T07:47:08.137Z,3.20
2023-05-20T07:49:42.991Z,4.40
2023-05-20T07:52:13.072Z,2.28
2023-05-20T07:54:47.070Z,3.38
2023-05-20T07:57:18.569Z,3.30
2023-05-20T07:59:53.540Z,3.75
2023-05-20T08:02:23.498Z,5.28
2023-05-20T08:04:53.407Z,2.70
2023-05-20T08:07:25.883Z,4.03
2023-05-20T08:09:59.094Z,2.47
2023-05-20T08:12:28.941Z,2.97
2023-05-20T08:15:01.392Z,3.38
2023-05-20T08:17:31.261Z,2.38
2023-05-20T08:20:01.192Z,1.80
2023-05-20T08:22:31.620Z,2.20
2023-05-20T08:25:01.464Z,3.72
2023-05-20T08:27:31.308Z,3.03
2023-05-20T08:30:04.587Z,3.42
2023-05-20T08:32:34.676Z,2.97
2023-05-20T08:35:04.644Z,2.75
2023-05-20T08:37:34.542Z,4.28
2023-05-20T08:40:05.429Z,2.33
2023-05-20T08:42:36.984Z,3.05
2023-05-20T08:45:14.024Z,1.23
2023-05-20T08:47:46.392Z,3.17
2023-05-20T08:50:17.523Z,3.33
2023-05-20T08:52:49.285Z,2.47
2023-05-20T08:55:27.420Z,3.78
2023-05-20T08:57:58.274Z,2.58
2023-05-20T09:00:30.791Z,3.20
2023-05-20T09:03:02.887Z,3.10
2023-05-20T09:05:33.176Z,2.78
2023-05-20T09:08:10.046Z,3.72
2023-05-20T09:10:40.974Z,4.35
2023-05-20T09:13:12.393Z,4.75
2023-05-20T09:15:44.897Z,4.05
2023-05-20T09:18:15.046Z,5.82
2023-05-20T09:20:45.189Z,5.28
2023-05-20T09:23:15.017Z,4.78
2023-05-20T09:25:44.920Z,7.25
2023-05-20T09:28:14.766Z,3.63
2023-05-20T09:30:47.256Z,7.75
2023-05-20T09:33:17.151Z,5.60
2023-05-20T09:35:50.006Z,8.10
2023-05-20T09:38:20.834Z,6.65
2023-05-20T09:40:51.639Z,6.05
2023-05-20T09:43:21.899Z,6.00
2023-05-20T09:46:07.607Z,5.20
2023-05-20T09:48:39.372Z,5.80
2023-05-20T09:51:14.019Z,5.28
2023-05-20T09:53:45.537Z,5.57
2023-05-20T09:56:15.743Z,3.72
2023-05-20T09:58:49.769Z,4.90
2023-05-20T10:01:32.625Z,6.85
2023-05-20T10:04:09.709Z,4.93
2023-05-20T10:06:57.509Z,5.30
2023-05-20T10:09:42.243Z,6.03
2023-05-20T10:12:25.434Z,5.38
2023-05-20T10:15:09.061Z,5.32
2023-05-20T10:17:50.509Z,5.05
2023-05-20T10:20:23.134Z,4.72
2023-05-20T10:23:01.023Z,5.32
2023-05-20T10:25:32.537Z,3.92
2023-05-20T10:28:12.035Z,6.32
2023-05-20T10:30:54.851Z,6.82
2023-05-20T10:33:47.375Z,6.10
2023-05-20T10:36:27.993Z,6.55
2023-05-20T10:38:59.558Z,5.50
2023-05-20T10:41:31.583Z,6.30
2023-05-20T10:44:07.539Z,4.97
2023-05-20T10:47:00.021Z,4.72
2023-05-20T10:49:37.854Z,6.38
2023-05-20T10:52:10.308Z,7.82
2023-05-20T10:54:48.635Z,5.43
2023-05-20T10:57:23.157Z,4.93
2023-05-20T10:59:53.280Z,5.00
2023-05-20T11:02:27.358Z,6.50
2023-05-20T11:05:00.107Z,6.90
2023-05-20T11:07:30.743Z,7.93
2023-05-20T11:10:01.121Z,6.00
2023-05-20T11:12:31.350Z,7.13
2023-05-20T11:15:01.286Z,5.75
2023-05-20T11:17:32.625Z,3.92
2023-05-20T11:20:10.010Z,4.50
2023-05-20T11:22:42.802Z,6.68
2023-05-20T11:25:13.874Z,8.65
2023-05-20T11:27:43.837Z,6.25
2023-05-20T11:30:19.916Z,5.13
2023-05-20T11:33:02.558Z,6.63
2023-05-20T11:35:47.780Z,7.80
2023-05-20T11:38:21.951Z,4.90
2023-05-20T11:40:55.886Z,6.15
2023-05-20T11:43:30.325Z,7.07
2023-05-20T11:46:01.423Z,6.30
2023-05-20T11:48:34.367Z,6.78
2023-05-20T11:51:11.556Z,6.60
2023-05-20T11:53:44.086Z,8.52
2023-05-20T11:56:14.305Z,7.85
2023-05-20T11:58:47.262Z,7.85
2023-05-20T12:01:22.735Z,11.35
2023-05-20T12:03:53.410Z,6.97
2023-05-20T12:06:25.987Z,6.00
2023-05-20T12:08:55.826Z,6.18
2023-05-20T12:11:26.067Z,8.00
2023-05-20T12:13:59.129Z,6.35
2023-05-20T12:16:33.273Z,5.25
2023-05-20T12:19:06.386Z,7.25
2023-05-20T12:21:40.806Z,6.68
2023-05-20T12:24:20.824Z,5.32
2023-05-20T12:26:55.506Z,5.55
2023-05-20T12:29:25.479Z,8.02
2023-05-20T12:31:58.108Z,6.15
2023-05-20T12:34:38.208Z,6.90
2023-05-20T12:37:13.466Z,6.85
2023-05-20T12:39:44.473Z,5.78
2023-05-20T12:42:16.148Z,8.07
2023-05-20T12:44:48.332Z,5.32
2023-05-20T12:47:20.943Z,7.68
2023-05-20T12:49:52.506Z,9.52
2023-05-20T12:52:25.018Z,6.53
2023-05-20T12:54:59.716Z,6.55
2023-05-20T12:57:29.800Z,7.30
2023-05-20T13:00:02.830Z,7.97
2023-05-20T13:02:34.180Z,7.20
2023-05-20T13:05:04.183Z,5.47
2023-05-20T13:07:38.199Z,9.13
2023-05-20T13:10:11.649Z,7.03
2023-05-20T13:12:46.248Z,5.40
2023-05-20T13:15:18.746Z,6.05
2023-05-20T13:17:51.300Z,6.97
2023-05-20T13:20:22.937Z,9.75
2023-05-20T13:22:55.451Z,7.47
2023-05-20T13:25:25.292Z,6.72
2023-05-20T13:27:59.715Z,5.78
2023-05-20T13:30:29.600Z,5.35
2023-05-20T13:33:02.158Z,6.70
2023-05-20T13:35:33.589Z,7.18
2023-05-20T13:38:14.492Z,7.47
2023-05-20T13:40:47.503Z,6.95
2023-05-20T13:43:21.918Z,5.82
2023-05-20T13:45:57.634Z,6.25
2023-05-20T13:48:33.564Z,4.82
2023-05-20T13:51:03.427Z,4.28
2023-05-20T13:53:42.752Z,5.80
2023-05-20T13:56:13.870Z,5.65
2023-05-20T13:58:46.080Z,6.97
2023-05-20T14:01:16.960Z,5.90
2023-05-20T14:03:48.632Z,6.00
2023-05-20T14:06:25.077Z,6.93
2023-05-20T14:08:59.583Z,7.13
2023-05-20T14:11:29.451Z,5.93
2023-05-20T14:14:08.528Z,7.63
2023-05-20T14:16:39.787Z,4.65
2023-05-20T14:19:12.098Z,5.18
2023-05-20T14:21:43.436Z,5.47
2023-05-20T14:24:25.143Z,6.70
2023-05-20T14:26:55.052Z,6.38
2023-05-20T14:29:24.955Z,7.88
2023-05-20T14:31:59.278Z,6.00
2023-05-20T14:34:31.048Z,5.82
2023-05-20T14:37:07.762Z,4.60
2023-05-20T14:39:40.445Z,5.85
2023-05-20T14:42:11.306Z,7.68
2023-05-20T14:44:41.985Z,7.22
2023-05-20T14:47:11.916Z,5.15
2023-05-20T14:49:42.461Z,5.13
2023-05-20T14:52:12.350Z,6.63
2023-05-20T14:54:45.608Z,7.57
2023-05-20T14:57:16.156Z,4.75
2023-05-20T14:59:46.440Z,6.47
2023-05-20T15:02:17.205Z,6.20
2023-05-20T15:04:48.190Z,4.05
2023-05-20T15:07:18.463Z,5.85
2023-05-20T15:09:51.277Z,5.63
2023-05-20T15:12:21.153Z,4.05
2023-05-20T15:14:51.005Z,4.43
2023-05-20T15:17:20.985Z,3.38
2023-05-20T15:19:50.909Z,4.72
2023-05-20T15:22:20.953Z,5.65
2023-05-20T15:24:53.451Z,5.70
2023-05-20T15:27:23.432Z,3.55
2023-05-20T15:29:53.319Z,3.97
2023-05-20T15:32:23.405Z,4.88
2023-05-20T15:34:53.307Z,3.95
2023-05-20T15:37:23.952Z,4.68
2023-05-20T15:39:56.674Z,6.20
2023-05-20T15:42:27.165Z,4.00
2023-05-20T15:44:57.209Z,3.72
2023-05-20T15:47:27.100Z,5.10
2023-05-20T15:49:57.656Z,4.18
2023-05-20T15:52:27.566Z,3.65
2023-05-20T15:55:00.134Z,2.97
2023-05-20T15:57:30.888Z,3.72
2023-05-20T16:00:00.882Z,6.10
2023-05-20T16:02:34.712Z,3.50
2023-05-20T16:05:06.882Z,5.80
2023-05-20T16:07:46.195Z,6.75
2023-05-20T16:10:18.800Z,4.32
2023-05-20T16:12:48.762Z,4.40
2023-05-20T16:15:18.683Z,4.70
2023-05-20T16:17:48.555Z,6.13
2023-05-20T16:20:21.268Z,3.95
2023-05-20T16:22:58.183Z,5.40
2023-05-20T16:25:36.114Z,4.07
2023-05-20T16:28:08.350Z,5.25
2023-05-20T16:30:51.663Z,3.70
2023-05-20T16:33:25.508Z,4.38
2023-05-20T16:35:56.239Z,4.50
2023-05-20T16:38:28.816Z,3.88
2023-05-20T16:41:15.974Z,4.35
2023-05-20T16:43:47.173Z,2.72
2023-05-20T16:46:20.308Z,5.43
2023-05-20T16:48:51.780Z,4.63
2023-05-20T16:51:24.275Z,4.80
2023-05-20T16:53:54.140Z,2.80
2023-05-20T16:56:28.541Z,5.75
2023-05-20T16:58:58.553Z,4.18
2023-05-20T17:01:29.171Z,2.85
2023-05-20T17:03:59.278Z,2.50
2023-05-20T17:06:29.210Z,4.25
2023-05-20T17:09:05.071Z,3.60
2023-05-20T17:11:37.487Z,4.22
2023-05-20T17:14:07.365Z,5.43
2023-05-20T17:16:37.442Z,3.45
2023-05-20T17:19:08.176Z,5.80
2023-05-20T17:21:44.460Z,3.45
2023-05-20T17:24:14.480Z,6.13
2023-05-20T17:26:46.960Z,4.80
2023-05-20T17:29:17.619Z,7.43
2023-05-20T17:31:47.738Z,3.63
2023-05-20T17:34:17.711Z,4.65
2023-05-20T17:36:47.637Z,4.70
2023-05-20T17:39:17.586Z,4.03
2023-05-20T17:41:53.161Z,5.03
2023-05-20T17:44:24.589Z,3.17
2023-05-20T17:46:54.457Z,5.82
2023-05-20T17:49:24.297Z,4.05
2023-05-20T17:51:54.198Z,7.25
2023-05-20T17:54:24.097Z,4.20
2023-05-20T17:56:56.623Z,4.03
2023-05-20T17:59:26.629Z,3.60
2023-05-20T18:01:57.086Z,3.05
2023-05-20T18:04:28.129Z,5.43
2023-05-20T18:07:01.045Z,5.10
2023-05-20T18:09:30.914Z,6.30
2023-05-20T18:12:03.333Z,5.32
2023-05-20T18:14:33.176Z,3.38
2023-05-20T18:17:04.645Z,3.42
2023-05-20T18:19:39.329Z,3.97
2023-05-20T18:22:09.188Z,3.72
2023-05-20T18:24:39.091Z,3.90
2023-05-20T18:27:11.662Z,3.83
2023-05-20T18:29:41.545Z,4.32
2023-05-20T18:32:11.707Z,3.13
2023-05-20T18:34:41.626Z,5.40
2023-05-20T18:37:11.506Z,5.03
2023-05-20T18:39:41.365Z,3.60
2023-05-20T18:42:17.739Z,4.85
2023-05-20T18:44:47.590Z,6.47
2023-05-20T18:47:17.582Z,7.78
2023-05-20T18:49:47.855Z,2.70
2023-05-20T18:52:17.740Z,5.95
2023-05-20T18:54:47.590Z,4.40
2023-05-20T18:57:20.084Z,5.60
2023-05-20T18:59:49.970Z,6.30
2023-05-20T19:02:20.113Z,4.47
2023-05-20T19:04:50.013Z,4.93
2023-05-20T19:07:19.890Z,5.32
2023-05-20T19:09:54.052Z,5.50
2023-05-20T19:12:26.680Z,5.13
2023-05-20T19:14:56.634Z,4.80
2023-05-20T19:17:26.755Z,5.30
2023-05-20T19:19:56.643Z,4.82
2023-05-20T19:22:26.812Z,5.63
2023-05-20T19:24:56.667Z,3.25
2023-05-20T19:27:29.161Z,6.28
2023-05-20T19:29:59.072Z,5.18
2023-05-20T19:32:28.937Z,4.13
2023-05-20T19:34:58.915Z,6.07
2023-05-20T19:37:28.716Z,4.20
2023-05-20T19:39:58.574Z,6.07
2023-05-20T19:42:31.061Z,4.53
2023-05-20T19:45:03.241Z,4.05
2023-05-20T19:47:33.320Z,7.28
2023-05-20T19:50:03.219Z,6.18
2023-05-20T19:52:36.560Z,5.10
2023-05-20T19:55:07.111Z,6.07
2023-05-20T19:57:39.603Z,6.63
2023-05-20T20:00:11.549Z,5.55
2023-05-20T20:02:41.772Z,7.30
2023-05-20T20:05:13.361Z,5.20
2023-05-20T20:07:43.386Z,4.35
2023-05-20T20:10:14.004Z,4.53
2023-05-20T20:12:46.448Z,5.25
2023-05-20T20:15:16.306Z,6.70
2023-05-20T20:17:52.158Z,6.50
2023-05-20T20:20:23.712Z,4.47
2023-05-20T20:22:53.624Z,4.63
2023-05-20T20:25:25.879Z,5.03
2023-05-20T20:27:58.324Z,5.75
2023-05-20T20:30:28.169Z,4.00
2023-05-20T20:32:58.028Z,4.82
2023-05-20T20:35:28.727Z,4.70
2023-05-20T20:37:58.582Z,7.13
2023-05-20T20:40:29.426Z,4.85
2023-05-20T20:43:05.077Z,4.55
2023-05-20T20:45:35.104Z,7.60
2023-05-20T20:48:05.739Z,4.30
2023-05-20T20:50:35.987Z,5.75
2023-05-20T20:53:05.958Z,5.20
2023-05-20T20:55:36.006Z,4.78
2023-05-20T20:58:08.595Z,6.13
2023-05-20T21:00:41.827Z,5.75
2023-05-20T21:03:12.164Z,5.78
2023-05-20T21:05:42.061Z,7.45
2023-05-20T21:08:13.425Z,6.38
2023-05-20T21:10:45.709Z,5.07
2023-05-20T21:13:18.166Z,5.80
2023-05-20T21:15:48.042Z,4.75
2023-05-20T21:18:22.013Z,4.80
2023-05-20T21:20:52.838Z,5.68
2023-05-20T21:23:23.520Z,5.10
2023-05-20T21:25:53.491Z,6.05
2023-05-20T21:28:26.088Z,3.97
2023-05-20T21:30:56.779Z,6.97
2023-05-20T21:33:26.689Z,4.93
2023-05-20T21:35:56.555Z,4.28
2023-05-20T21:38:26.508Z,6.32
2023-05-20T21:40:58.305Z,4.63
2023-05-20T21:43:33.280Z,4.65
2023-05-20T21:46:03.196Z,5.68
2023-05-20T21:48:33.133Z,4.78
2023-05-20T21:51:03.012Z,4.97
2023-05-20T21:53:32.883Z,4.97
2023-05-20T21:56:02.749Z,5.20
2023-05-20T21:58:41.084Z,4.55
2023-05-20T22:01:11.970Z,4.57
2023-05-20T22:03:48.749Z,3.42
2023-05-20T22:06:21.605Z,5.20
2023-05-20T22:08:52.020Z,3.13
2023-05-20T22:11:21.942Z,3.63
2023-05-20T22:13:54.878Z,3.40
2023-05-20T22:16:24.969Z,3.90
2023-05-20T22:18:55.848Z,3.28
2023-05-20T22:21:26.468Z,4.88
2023-05-20T22:23:56.518Z,4.05
2023-05-20T22:26:27.006Z,5.68
2023-05-20T22:28:59.442Z,3.85
2023-05-20T22:31:29.396Z,3.95
2023-05-20T22:33:59.770Z,7.30
2023-05-20T22:36:34.370Z,3.58
2023-05-20T22:39:06.863Z,4.15
2023-05-20T22:41:36.765Z,3.92
2023-05-20T22:44:09.430Z,3.63
2023-05-20T22:46:39.522Z,3.97
2023-05-20T22:49:10.458Z,3.95
2023-05-20T22:51:41.308Z,9.50
2023-05-20T22:54:11.126Z,4.00
2023-05-20T22:56:43.267Z,3.88
2023-05-20T22:59:15.995Z,5.65
2023-05-20T23:01:46.293Z,5.80
2023-05-20T23:04:16.347Z,6.28
2023-05-20T23:06:47.014Z,4.88
2023-05-20T23:09:16.849Z,5.50
2023-05-20T23:11:46.709Z,4.57
2023-05-20T23:14:20.240Z,5.30
2023-05-20T23:16:51.138Z,5.95
2023-05-20T23:19:21.097Z,4.53
2023-05-20T23:21:50.958Z,5.40
2023-05-20T23:24:20.855Z,5.47
2023-05-20T23:26:51.397Z,5.32
2023-05-20T23:29:24.007Z,5.03
2023-05-20T23:31:53.874Z,7.68
2023-05-20T23:34:23.732Z,5.13
2023-05-20T23:36:53.668Z,5.53
2023-05-20T23:39:23.713Z,5.35
2023-05-20T23:41:58.187Z,6.22
2023-05-20T23:44:31.426Z,6.22
2023-05-20T23:47:01.731Z,5.13
2023-05-20T23:49:32.318Z,6.80
2023-05-20T23:52:02.346Z,5.82
2023-05-20T23:54:34.455Z,5.47
2023-05-20T23:57:04.319Z,4.22
2023-05-20T23:59:36.767Z,4.82
